Weather at Bozhurishte Airport [CLOSED]

Public forecast

Using degrees Celsius for public forecast. Weather courtesy of forecast.io.

Closest aviation weather report (METAR) to Bozhurishte Airport

Closest report is Sofia Airport, 10.1 nm (18.7 km) ESE.

2024/05/28 16:00 (retrieved 15 minutes ago)

LBSF 281600Z AUTO 22005KT 9999 NSC 18/09 Q1014 NOSIG

Closest aviation forecast (TAF) to Bozhurishte Airport

Closest forecast is Sofia Airport, 10.1 nm (18.7 km) ESE.

2024/05/28 12:18 (retrieved 4 hours ago)

TAF LBSF 281100Z 2812/2912 VRB04KT 9999 BKN050 TEMPO 2812/2817 VRB16G26KT 5000 TSRA SCT030CB BKN040 TEMPO 2900/2905 3000 BR BKN012 BECMG 2908/2910 30010KT